Time;durP1;ratioP1;P1;durP2;ratioP2;P2;SDS_P1;SDS_P2;PMS_P1;PMS_P2;Temp;Humidity;BMP_temperature;BMP_pressure;BME280_temperature;BME280_humidity;BME280_pressure;Samples;Min_cycle;Max_cycle;Signal;HPM_P1;HPM_P2
2022/10/17 00:00:26;;;;;;;12.68;8.63;;;;;;;12.08;100.00;101579.41;6183270;23;20012;-92
2022/10/17 00:02:54;;;;;;;11.95;8.35;;;;;;;12.17;100.00;101593.13;6181203;23;20001;-92
2022/10/17 00:05:22;;;;;;;16.65;8.35;;;;;;;12.15;100.00;101587.06;6181536;23;19997;-92
2022/10/17 00:07:47;;;;;;;13.00;8.02;;;;;;;12.14;100.00;101590.59;6179468;23;20009;-92
2022/10/17 00:10:13;;;;;;;12.70;7.82;;;;;;;12.13;100.00;101583.66;6180771;23;20028;-92
2022/10/17 00:12:40;;;;;;;13.13;7.88;;;;;;;12.13;100.00;101582.81;6181420;23;20096;-92
2022/10/17 00:15:07;;;;;;;12.43;8.40;;;;;;;12.06;100.00;101578.59;6182460;23;20084;-92
2022/10/17 00:17:32;;;;;;;12.27;8.27;;;;;;;12.17;100.00;101595.72;6181531;23;20005;-93
2022/10/17 00:20:01;;;;;;;14.18;9.38;;;;;;;12.16;100.00;101590.53;6183055;23;20336;-91
2022/10/17 00:22:27;;;;;;;14.45;9.20;;;;;;;12.08;100.00;101571.63;6182182;23;20001;-91
2022/10/17 00:24:55;;;;;;;12.55;8.85;;;;;;;12.19;100.00;101586.16;6182224;23;20004;-92
2022/10/17 00:27:20;;;;;;;14.55;8.65;;;;;;;12.16;100.00;101574.94;6183120;23;20001;-90
2022/10/17 00:29:50;;;;;;;13.18;8.30;;;;;;;12.23;100.00;101579.13;6183122;23;20011;-91
2022/10/17 00:32:16;;;;;;;11.48;8.40;;;;;;;12.13;100.00;101556.81;6181357;23;20012;-90
2022/10/17 00:34:41;;;;;;;12.85;8.23;;;;;;;12.17;100.00;101563.66;6180351;23;20005;-91
2022/10/17 00:37:07;;;;;;;13.05;8.73;;;;;;;12.14;100.00;101556.81;6181220;23;20005;-91
2022/10/17 00:39:32;;;;;;;12.52;7.68;;;;;;;12.20;100.00;101566.22;6183176;23;20005;-91
2022/10/17 00:41:58;;;;;;;13.40;9.10;;;;;;;12.24;100.00;101553.13;6183332;23;20005;-91
2022/10/17 00:44:29;;;;;;;12.40;8.85;;;;;;;12.30;100.00;101566.88;6181984;23;19997;-91
2022/10/17 00:47:04;;;;;;;12.60;8.20;;;;;;;12.30;100.00;101567.75;6181226;23;20444;-91
2022/10/17 00:49:33;;;;;;;13.55;8.32;;;;;;;12.31;100.00;101561.66;6180774;23;20017;-92
2022/10/17 00:52:03;;;;;;;15.00;9.05;;;;;;;12.30;100.00;101551.28;6181710;23;20005;-93
2022/10/17 00:54:35;;;;;;;15.80;8.35;;;;;;;12.28;100.00;101559.97;6180457;23;20024;-92
2022/10/17 00:57:01;;;;;;;15.18;8.68;;;;;;;12.28;100.00;101559.13;6180583;23;20028;-92
2022/10/17 00:59:28;;;;;;;13.88;8.27;;;;;;;12.24;100.00;101550.53;6179643;23;20008;-92
2022/10/17 01:02:09;;;;;;;14.02;8.90;;;;;;;12.37;100.00;101571.94;6182833;23;20004;-91
2022/10/17 01:04:36;;;;;;;13.60;8.07;;;;;;;12.36;100.00;101572.81;6179821;23;20009;-92
2022/10/17 01:07:02;;;;;;;13.73;8.15;;;;;;;12.27;100.00;101560.03;6181314;23;20047;-92
2022/10/17 01:09:30;;;;;;;11.73;8.18;;;;;;;12.33;100.00;101556.44;6180716;23;20005;-93
2022/10/17 01:12:05;;;;;;;15.27;8.00;;;;;;;12.27;100.00;101553.09;6180922;23;20355;-91
2022/10/17 01:15:09;;;;;;;11.68;7.55;;;;;;;12.25;100.00;101544.44;6181814;23;20413;-91
2022/10/17 01:17:49;;;;;;;12.68;7.85;;;;;;;12.33;100.00;101559.91;6132810;23;20537;-92
2022/10/17 01:20:46;;;;;;;15.82;7.72;;;;;;;12.20;100.00;101537.63;6180937;23;20039;-93
2022/10/17 01:23:23;;;;;;;14.13;7.95;;;;;;;12.32;100.00;101555.59;6177293;23;20450;-91
2022/10/17 01:26:12;;;;;;;12.50;7.85;;;;;;;12.33;100.00;101559.03;6182338;23;20005;-91
2022/10/17 01:28:50;;;;;;;14.27;8.20;;;;;;;12.35;100.00;101562.47;6180782;23;20001;-93
2022/10/17 01:31:24;;;;;;;13.77;8.40;;;;;;;12.28;100.00;101546.16;6180758;23;20084;-92
2022/10/17 01:34:08;;;;;;;17.52;9.60;;;;;;;12.28;100.00;101539.16;6180632;23;20106;-92
2022/10/17 01:36:47;;;;;;;16.73;9.68;;;;;;;12.39;100.00;101546.78;6180217;23;20004;-92
2022/10/17 01:39:43;;;;;;;12.73;8.25;;;;;;;12.48;100.00;101551.81;6177670;23;20012;-93
2022/10/17 01:42:26;;;;;;;15.95;9.88;;;;;;;12.55;100.00;101550.78;6182154;23;20581;-92
2022/10/17 01:45:19;;;;;;;14.93;9.17;;;;;;;12.48;100.00;101530.13;6180085;23;20320;-92
2022/10/17 01:47:49;;;;;;;13.98;8.63;;;;;;;12.50;100.00;101530.94;6192975;23;20016;-92
2022/10/17 01:50:27;;;;;;;16.63;9.82;;;;;;;12.68;100.00;101551.38;6180543;23;20005;-91
2022/10/17 01:52:58;;;;;;;16.67;10.45;;;;;;;12.70;100.00;101533.97;6180990;23;20011;-91
2022/10/17 01:55:43;;;;;;;18.83;10.13;;;;;;;12.77;100.00;101538.16;6179430;23;20001;-91
2022/10/17 01:58:37;;;;;;;17.17;10.43;;;;;;;12.81;100.00;101538.97;6180108;23;20009;-91
2022/10/17 02:01:12;;;;;;;16.08;9.82;;;;;;;12.81;100.00;101539.84;6173884;23;20004;-91
2022/10/17 02:03:42;;;;;;;14.73;9.57;;;;;;;12.86;100.00;101544.94;6182493;23;20015;-91
2022/10/17 02:06:07;;;;;;;16.23;10.20;;;;;;;12.85;100.00;101538.00;6180408;23;20095;-91
2022/10/17 02:08:40;;;;;;;16.27;10.52;;;;;;;12.88;100.00;101545.75;6180746;23;20465;-91
2022/10/17 02:11:12;;;;;;;16.88;10.35;;;;;;;12.92;100.00;101547.38;6180428;23;20015;-91
2022/10/17 02:13:56;;;;;;;16.98;9.75;;;;;;;12.88;100.00;101546.63;6181649;23;20012;-91
2022/10/17 02:16:52;;;;;;;16.85;9.13;;;;;;;12.87;100.00;101546.66;6181343;23;20495;-90
2022/10/17 02:19:38;;;;;;;17.40;9.88;;;;;;;12.84;100.00;101538.88;6180393;23;20005;-91
2022/10/17 02:22:30;;;;;;;13.07;8.45;;;;;;;12.81;100.00;101536.38;6180547;23;20001;-91
2022/10/17 02:25:30;;;;;;;11.50;7.65;;;;;;;12.68;100.00;101519.31;6181593;23;20475;-91
2022/10/17 02:28:18;;;;;;;15.73;8.70;;;;;;;12.74;100.00;101533.03;6179926;23;20005;-91
2022/10/17 02:31:18;;;;;;;14.30;8.07;;;;;;;12.70;100.00;101533.97;6182341;23;20084;-91
2022/10/17 02:33:53;;;;;;;13.52;8.02;;;;;;;12.56;100.00;101521.28;6184972;23;20013;-91
2022/10/17 02:36:23;;;;;;;13.07;8.07;;;;;;;12.58;100.00;101521.25;6181314;23;20070;-91
2022/10/17 02:38:51;;;;;;;12.43;8.40;;;;;;;12.56;100.00;101525.63;6180553;23;20001;-91
2022/10/17 02:41:18;;;;;;;14.98;9.30;;;;;;;12.57;100.00;101533.38;6181929;23;20088;-91
2022/10/17 02:43:47;;;;;;;12.68;8.02;;;;;;;12.61;100.00;101534.19;6181305;23;20552;-92
2022/10/17 02:46:19;;;;;;;17.27;8.95;;;;;;;12.47;100.00;101518.03;6179232;23;20015;-91
2022/10/17 02:49:01;;;;;;;13.93;8.57;;;;;;;12.57;100.00;101538.59;6181776;23;20016;-92
2022/10/17 02:51:35;;;;;;;13.18;9.00;;;;;;;12.59;100.00;101531.63;6180390;23;20087;-91
2022/10/17 02:54:08;;;;;;;11.63;7.75;;;;;;;12.45;100.00;101509.38;6180279;23;20092;-91
2022/10/17 02:56:41;;;;;;;15.30;9.63;;;;;;;12.47;100.00;101518.03;6179433;23;20335;-91
2022/10/17 02:59:11;;;;;;;15.02;8.82;;;;;;;12.46;100.00;101519.75;6179235;23;20005;-92
2022/10/17 03:01:36;;;;;;;13.60;9.02;;;;;;;12.53;100.00;101536.97;6178420;23;20336;-93
2022/10/17 03:04:11;;;;;;;15.85;10.32;;;;;;;12.59;100.00;101536.81;6176456;23;20473;-92
2022/10/17 03:06:36;;;;;;;;;;;;;;;12.61;100.00;101529.84;6181683;23;20073;-92
2022/10/17 03:09:02;;;;;;;16.70;10.05;;;;;;;12.47;100.00;101513.69;6179692;23;19932;-93
2022/10/17 03:11:28;;;;;;;14.43;9.30;;;;;;;12.57;100.00;101538.59;6179421;23;20382;-93
2022/10/17 03:13:53;;;;;;;18.75;10.70;;;;;;;12.45;100.00;101509.38;6179868;23;20519;-92
2022/10/17 03:16:19;;;;;;;15.82;9.52;;;;;;;12.48;100.00;101514.53;6181563;23;20009;-92
2022/10/17 03:18:47;;;;;;;17.05;9.63;;;;;;;12.49;100.00;101521.44;6180340;23;20005;-92
2022/10/17 03:21:13;;;;;;;15.30;9.23;;;;;;;12.47;100.00;101510.22;6180409;23;20028;-91
2022/10/17 03:23:43;;;;;;;17.95;9.32;;;;;;;12.42;100.00;101512.06;6185126;23;20009;-92
2022/10/17 03:26:11;;;;;;;15.30;9.15;;;;;;;12.54;100.00;101538.66;6183164;23;20029;-92
2022/10/17 03:28:37;;;;;;;18.77;10.98;;;;;;;12.55;100.00;101516.13;6183624;23;20442;-91
2022/10/17 03:31:10;;;;;;;15.63;9.07;;;;;;;12.56;100.00;101520.41;6183219;23;20084;-91
2022/10/17 03:33:38;;;;;;;15.38;9.32;;;;;;;12.51;100.00;101517.91;6182463;23;20004;-92
2022/10/17 03:36:08;;;;;;;17.67;10.85;;;;;;;12.56;100.00;101510.88;6182519;23;20005;-93
2022/10/17 03:38:34;;;;;;;15.52;9.75;;;;;;;12.58;100.00;101516.03;6184433;23;20500;-91
2022/10/17 03:41:02;;;;;;;14.90;9.55;;;;;;;12.63;100.00;101522.84;6183226;23;20502;-92
2022/10/17 03:43:28;;;;;;;17.63;11.10;;;;;;;12.74;100.00;101524.38;6182905;23;20084;-93
2022/10/17 03:45:55;;;;;;;19.00;9.95;;;;;;;12.64;100.00;101508.09;6185428;23;20071;-93
2022/10/17 03:48:21;;;;;;;15.25;10.38;;;;;;;12.81;100.00;101534.63;6184480;23;20335;-92
2022/10/17 03:50:47;;;;;;;20.83;11.15;;;;;;;12.75;100.00;101515.69;6184146;23;20438;-92
2022/10/17 03:53:13;;;;;;;16.95;9.73;;;;;;;12.77;100.00;101524.31;6182576;23;20005;-92
2022/10/17 03:55:38;;;;;;;17.58;9.75;;;;;;;12.87;100.00;101528.44;6180651;23;20035;-93
2022/10/17 03:58:06;;;;;;;16.67;9.52;;;;;;;12.92;100.00;101518.75;6183317;23;20009;-92
2022/10/17 04:00:35;;;;;;;21.88;11.57;;;;;;;12.88;100.00;101502.38;6184270;23;20059;-92
2022/10/17 04:03:00;;;;;;;20.17;11.15;;;;;;;12.88;100.00;101504.13;6184436;23;20035;-90
2022/10/17 04:05:25;;;;;;;19.85;11.30;;;;;;;12.99;100.00;101523.81;6182486;23;20415;-91
2022/10/17 04:07:54;;;;;;;15.52;9.68;;;;;;;12.96;100.00;101510.88;6185102;23;20493;-91
2022/10/17 04:10:19;;;;;;;18.13;11.55;;;;;;;13.05;100.00;101520.19;6184755;23;20001;-91
2022/10/17 04:12:45;;;;;;;16.38;10.60;;;;;;;13.03;100.00;101515.03;6182657;23;20001;-92
2022/10/17 04:15:10;;;;;;;19.45;11.25;;;;;;;13.15;100.00;101523.50;6182557;23;20008;-91
2022/10/17 04:17:36;;;;;;;19.83;11.25;;;;;;;13.25;100.00;101533.63;6183111;23;20063;-92
2022/10/17 04:20:01;;;;;;;18.05;11.13;;;;;;;13.24;100.00;101518.91;6183209;23;20009;-92
2022/10/17 04:22:26;;;;;;;16.88;10.27;;;;;;;13.27;100.00;101521.44;6181917;23;20005;-92
2022/10/17 04:24:52;;;;;;;14.25;9.02;;;;;;;13.26;100.00;101524.94;6185389;23;19997;-91
2022/10/17 04:27:17;;;;;;;17.40;10.48;;;;;;;13.47;100.00;101556.56;6183104;23;20076;-91
2022/10/17 04:29:43;;;;;;;17.73;10.02;;;;;;;13.48;100.00;101550.47;6180794;23;20001;-92
2022/10/17 04:32:10;;;;;;;16.48;10.73;;;;;;;13.56;100.00;101545.94;6179727;23;20001;-92
2022/10/17 04:34:36;;;;;;;17.15;10.45;;;;;;;13.57;100.00;101537.22;6180125;23;20005;-93
2022/10/17 04:37:02;;;;;;;19.83;11.30;;;;;;;13.64;100.00;101539.66;6181504;23;20015;-92
2022/10/17 04:39:28;;;;;;;20.63;11.32;;;;;;;13.71;100.00;101548.16;6182664;23;20009;-92
2022/10/17 04:41:55;;;;;;;23.17;11.23;;;;;;;13.75;100.00;101547.19;6180863;23;20338;-92
2022/10/17 04:44:21;;;;;;;17.95;10.63;;;;;;;13.76;100.00;101535.88;6183318;23;20028;-92
2022/10/17 04:46:46;;;;;;;20.48;10.75;;;;;;;13.80;100.00;101542.69;6181586;23;20001;-92
2022/10/17 04:49:14;;;;;;;18.05;10.30;;;;;;;13.82;100.00;101552.19;6181646;23;20024;-93
2022/10/17 04:51:40;;;;;;;15.90;9.98;;;;;;;13.88;100.00;101576.38;6181887;23;20333;-92
2022/10/17 04:54:05;;;;;;;17.40;10.23;;;;;;;13.76;100.00;101561.91;6178782;23;20001;-93
2022/10/17 04:56:33;;;;;;;14.35;8.60;;;;;;;13.75;100.00;101562.81;6181125;23;20032;-92
2022/10/17 04:58:59;;;;;;;18.90;9.73;;;;;;;13.76;100.00;101562.78;6182439;23;20316;-92
2022/10/17 05:01:25;;;;;;;18.67;10.02;;;;;;;13.67;100.00;101562.13;6182401;23;20052;-91
2022/10/17 05:03:51;;;;;;;13.85;9.52;;;;;;;13.68;100.00;101579.50;6181166;23;20383;-91
2022/10/17 05:06:23;;;;;;;15.93;9.93;;;;;;;13.65;100.00;101574.34;6181028;23;19993;-92
2022/10/17 05:08:49;;;;;;;14.43;9.20;;;;;;;13.66;100.00;101592.53;6180613;23;20011;-91
2022/10/17 05:11:19;;;;;;;13.55;8.27;;;;;;;13.67;100.00;101594.25;6180920;23;20012;-91
2022/10/17 05:13:52;;;;;;;19.08;9.32;;;;;;;13.63;100.00;101594.38;6180856;23;20005;-91
2022/10/17 05:16:19;;;;;;;12.63;8.38;;;;;;;13.56;100.00;101590.22;6180835;23;20063;-92
2022/10/17 05:18:53;;;;;;;13.05;8.23;;;;;;;13.52;100.00;101578.13;6181538;23;20028;-91
2022/10/17 05:21:18;;;;;;;;;;;;;;;13.67;100.00;101588.19;6181225;23;20013;-92
2022/10/17 05:23:44;;;;;;;13.65;9.00;;;;;;;13.64;100.00;101593.50;6179704;23;19922;-91
2022/10/17 05:26:11;;;;;;;17.10;9.57;;;;;;;13.59;100.00;101603.16;6180810;23;20008;-90
2022/10/17 05:28:36;;;;;;;14.48;8.93;;;;;;;13.50;100.00;101575.59;6181669;23;20084;-90
2022/10/17 05:31:06;;;;;;;17.45;9.73;;;;;;;13.55;100.00;101589.34;6182395;23;20039;-91
2022/10/17 05:33:32;;;;;;;16.92;9.52;;;;;;;13.53;100.00;101596.34;6182588;23;20058;-91
2022/10/17 05:35:58;;;;;;;18.73;8.95;;;;;;;13.57;100.00;101597.13;6181593;23;20072;-91
2022/10/17 05:38:24;;;;;;;16.38;9.95;;;;;;;13.61;100.00;101599.63;6181362;23;20339;-90
2022/10/17 05:40:50;;;;;;;14.50;9.27;;;;;;;13.66;100.00;101612.53;6178614;23;20016;-92
2022/10/17 05:43:15;;;;;;;18.77;10.13;;;;;;;13.70;100.00;101627.22;6181930;23;20005;-91
2022/10/17 05:45:41;;;;;;;13.77;9.20;;;;;;;13.62;100.00;101603.94;6180193;23;20447;-91
2022/10/17 05:48:07;;;;;;;12.55;7.78;;;;;;;13.54;100.00;101585.03;6179993;23;20090;-92
2022/10/17 05:50:33;;;;;;;14.35;9.38;;;;;;;13.57;100.00;101597.13;6180377;23;20593;-92
2022/10/17 05:52:59;;;;;;;16.45;10.35;;;;;;;13.64;100.00;101606.53;6180292;23;20005;-92
2022/10/17 05:55:24;;;;;;;17.02;9.75;;;;;;;13.70;100.00;101606.38;6181366;23;20028;-91
2022/10/17 05:57:51;;;;;;;13.18;8.98;;;;;;;13.61;100.00;101599.63;6177411;23;20013;-91
2022/10/17 06:00:17;;;;;;;14.98;8.90;;;;;;;13.69;100.00;101618.53;6179290;23;20004;-91
2022/10/17 06:02:46;;;;;;;13.07;7.88;;;;;;;13.68;100.00;101621.16;6179792;23;20009;-92
2022/10/17 06:05:12;;;;;;;12.20;8.63;;;;;;;13.71;100.00;101618.50;6179961;23;20547;-92
2022/10/17 06:07:38;;;;;;;19.23;10.35;;;;;;;13.68;100.00;101610.75;6181265;23;20328;-92
2022/10/17 06:10:04;;;;;;;11.05;7.95;;;;;;;13.68;100.00;101618.56;6179932;23;20435;-91
2022/10/17 06:12:32;;;;;;;12.43;7.95;;;;;;;13.69;100.00;101609.88;6180738;23;20005;-91
2022/10/17 06:14:57;;;;;;;17.20;9.52;;;;;;;13.70;100.00;101609.84;6181909;23;20033;-92
2022/10/17 06:17:23;;;;;;;14.70;8.35;;;;;;;13.74;100.00;101613.22;6180663;23;20005;-91
2022/10/17 06:19:48;;;;;;;12.10;8.18;;;;;;;13.80;100.00;101626.94;6179091;23;20764;-91
2022/10/17 06:22:14;;;;;;;15.30;8.52;;;;;;;13.85;100.00;101635.50;6179163;23;20001;-91
2022/10/17 06:24:40;;;;;;;12.15;7.75;;;;;;;13.72;100.00;101622.78;6182207;23;19997;-92
2022/10/17 06:27:05;;;;;;;13.75;8.15;;;;;;;13.79;100.00;101621.75;6180155;23;20009;-90
2022/10/17 06:29:31;;;;;;;12.25;7.70;;;;;;;13.80;100.00;101618.25;6180259;23;20166;-91
2022/10/17 06:31:56;;;;;;;13.85;8.63;;;;;;;13.82;100.00;101625.16;6180134;23;20004;-91
2022/10/17 06:34:22;;;;;;;18.73;9.55;;;;;;;13.97;100.00;101629.16;6179604;23;20427;-91
2022/10/17 06:36:47;;;;;;;15.38;8.45;;;;;;;13.94;100.00;101626.59;6180752;23;20028;-91
2022/10/17 06:39:13;;;;;;;15.43;9.00;;;;;;;14.02;100.00;101639.44;6181765;23;20001;-91
2022/10/17 06:41:40;;;;;;;13.35;8.98;;;;;;;14.07;100.00;101624.53;6179981;23;20084;-90
2022/10/17 06:44:09;;;;;;;14.10;8.40;;;;;;;14.08;100.00;101626.25;6178640;23;20075;-91
2022/10/17 06:46:36;;;;;;;15.57;8.80;;;;;;;14.11;100.00;101626.19;6181588;23;20013;-91
2022/10/17 06:49:03;;;;;;;13.35;8.80;;;;;;;14.19;100.00;101629.47;6181269;23;20016;-91
2022/10/17 06:51:33;;;;;;;13.23;8.77;;;;;;;14.19;100.00;101626.84;6181054;23;20063;-91
2022/10/17 06:53:59;;;;;;;14.73;9.15;;;;;;;14.30;100.00;101642.19;6180251;23;20049;-91
2022/10/17 06:56:24;;;;;;;16.13;9.25;;;;;;;14.37;100.00;101643.75;6179138;23;20028;-92
2022/10/17 06:58:50;;;;;;;17.90;9.32;;;;;;;14.47;100.00;101660.88;6181541;23;20036;-91
2022/10/17 07:01:16;;;;;;;13.68;8.77;;;;;;;14.53;100.00;101663.38;6179714;23;20059;-91
2022/10/17 07:03:42;;;;;;;14.48;9.05;;;;;;;14.57;100.00;101663.22;6177289;23;20001;-91
2022/10/17 07:06:10;;;;;;;13.77;8.75;;;;;;;14.65;100.00;101657.81;6180787;23;20020;-91
2022/10/17 07:08:41;;;;;;;15.15;9.40;;;;;;;14.70;100.00;101653.31;6182032;23;20001;-91
2022/10/17 07:11:12;;;;;;;15.43;9.93;;;;;;;14.81;100.00;101656.47;6182023;23;20447;-90
2022/10/17 07:13:44;;;;;;;17.48;10.48;;;;;;;14.80;100.00;101640.88;6179683;23;20005;-92
2022/10/17 07:16:10;;;;;;;15.45;9.38;;;;;;;14.87;100.00;101630.22;6178478;23;20480;-91
2022/10/17 07:18:36;;;;;;;15.00;10.02;;;;;;;15.00;100.00;101656.81;6181026;23;20541;-91
2022/10/17 07:21:05;;;;;;;15.30;9.85;;;;;;;14.97;100.00;101636.84;6181476;23;20004;-92
2022/10/17 07:23:35;;;;;;;15.75;9.68;;;;;;;15.05;100.00;101651.44;6181169;23;20009;-92
2022/10/17 07:26:12;;;;;;;14.68;9.48;;;;;;;15.03;100.00;101641.91;6179692;23;20007;-93
2022/10/17 07:28:43;;;;;;;14.32;9.75;;;;;;;15.15;100.00;101658.94;6179514;23;20012;-91
2022/10/17 07:31:15;;;;;;;15.52;10.02;;;;;;;15.17;100.00;101666.75;6177980;23;20009;-90
2022/10/17 07:33:44;;;;;;;14.40;9.43;;;;;;;15.26;100.00;101676.94;6181678;23;20072;-91
2022/10/17 07:36:12;;;;;;;16.60;9.65;;;;;;;15.28;100.00;101686.44;6181357;23;20699;-90
2022/10/17 07:38:43;;;;;;;13.00;9.10;;;;;;;15.18;100.00;101669.31;6180972;23;20001;-91
2022/10/17 07:41:12;;;;;;;17.35;9.30;;;;;;;15.29;100.00;101695.97;6181244;23;20011;-90
2022/10/17 07:43:40;;;;;;;15.65;9.73;;;;;;;15.31;100.00;101706.38;6179203;23;20005;-90
2022/10/17 07:46:07;;;;;;;16.25;9.70;;;;;;;15.28;100.00;101727.38;6178137;23;20080;-91
2022/10/17 07:48:38;;;;;;;16.45;9.38;;;;;;;15.26;100.00;101743.09;6179525;23;20017;-89
2022/10/17 07:51:07;;;;;;;14.48;8.90;;;;;;;15.30;100.00;101759.53;6181014;23;20120;-90
2022/10/17 07:53:44;;;;;;;15.07;9.25;;;;;;;15.31;100.00;101777.78;6181433;23;20497;-89
2022/10/17 07:56:15;;;;;;;16.27;9.57;;;;;;;15.40;100.00;101787.97;6179639;23;20009;-90
2022/10/17 07:58:41;;;;;;;14.85;8.82;;;;;;;15.38;100.00;101794.13;6176749;23;20123;-90
2022/10/17 08:01:09;;;;;;;17.77;10.07;;;;;;;15.40;100.00;101802.78;6177555;23;20025;-91
2022/10/17 08:03:35;;;;;;;13.38;8.15;;;;;;;15.47;100.00;101783.44;6178641;23;20016;-90
2022/10/17 08:06:02;;;;;;;13.30;8.38;;;;;;;15.55;100.00;101791.09;6180475;23;20001;-91
2022/10/17 08:08:27;;;;;;;18.20;8.30;;;;;;;15.63;100.00;101816.06;6181649;23;20427;-91
2022/10/17 08:10:55;;;;;;;13.63;8.25;;;;;;;15.64;100.00;101785.56;6180255;23;20084;-90
2022/10/17 08:13:21;;;;;;;13.80;8.30;;;;;;;15.62;100.00;101797.84;6181355;23;20077;-90
2022/10/17 08:15:47;;;;;;;13.90;7.93;;;;;;;15.69;100.00;101794.16;6180563;23;20005;-90
2022/10/17 08:18:13;;;;;;;14.45;8.30;;;;;;;15.74;100.00;101790.50;6180959;23;20008;-88
2022/10/17 08:20:40;;;;;;;11.40;7.57;;;;;;;15.88;100.00;101799.69;6179625;23;20012;-88
2022/10/17 08:23:06;;;;;;;13.70;7.90;;;;;;;15.92;100.00;101816.97;6180328;23;20009;-87
2022/10/17 08:25:32;;;;;;;13.00;7.80;;;;;;;15.96;100.00;101832.53;6181962;23;19997;-88
2022/10/17 08:27:57;;;;;;;10.75;7.20;;;;;;;15.96;100.00;101858.69;6181878;23;20490;-87
2022/10/17 08:30:23;;;;;;;11.00;7.35;;;;;;;15.95;100.00;101864.81;6181275;23;20446;-87
2022/10/17 08:32:48;;;;;;;10.80;7.65;;;;;;;15.94;100.00;101883.16;6182423;23;20013;-87
2022/10/17 08:35:13;;;;;;;15.23;7.95;;;;;;;15.96;100.00;101887.47;6178608;23;20009;-88
2022/10/17 08:37:39;;;;;;;12.82;7.45;;;;;;;15.91;100.00;101875.41;6179147;23;20140;-88
2022/10/17 08:40:08;;;;;;;12.32;8.30;;;;;;;15.88;100.00;101870.28;6180749;23;20012;-88
2022/10/17 08:43:02;;;;;;;13.90;8.68;;;;;;;15.87;100.00;101873.78;6182371;23;20063;-88
2022/10/17 08:45:34;;;;;;;16.33;9.03;;;;;;;15.84;100.00;101866.03;6179594;23;20005;-89
2022/10/17 08:48:08;;;;;;;15.93;8.77;;;;;;;15.76;100.00;101863.66;6181852;23;20355;-88
2022/10/17 08:50:35;;;;;;;;;;;;;;;15.80;100.00;101863.50;6180585;23;20004;-88
2022/10/17 08:53:19;;;;;;;12.93;8.20;;;;;;;15.77;100.00;101871.44;6180068;23;19990;-88
2022/10/17 08:55:47;;;;;;;15.50;9.18;;;;;;;15.73;100.00;101879.41;6181083;23;20454;-88
2022/10/17 08:58:27;;;;;;;16.38;9.60;;;;;;;15.72;100.00;101865.47;6181403;23;20012;-88
2022/10/17 09:01:00;;;;;;;16.15;9.23;;;;;;;15.76;100.00;101868.88;6181884;23;20434;-89
2022/10/17 09:03:37;;;;;;;15.57;8.70;;;;;;;15.74;100.00;101871.53;6181924;23;20005;-90
2022/10/17 09:06:28;;;;;;;14.43;8.88;;;;;;;15.76;100.00;101877.56;6181368;23;20435;-91
2022/10/17 09:09:10;;;;;;;14.50;8.70;;;;;;;15.76;100.00;101858.44;6181153;23;20022;-90
2022/10/17 09:11:47;;;;;;;15.60;8.70;;;;;;;15.75;100.00;101860.19;6182390;23;20024;-90
2022/10/17 09:14:47;;;;;;;16.08;8.52;;;;;;;15.73;100.00;101869.81;6180212;23;20009;-91
2022/10/17 09:17:27;;;;;;;13.93;8.27;;;;;;;15.76;100.00;101885.41;6180131;23;20242;-90
2022/10/17 09:20:05;;;;;;;15.88;8.52;;;;;;;15.76;100.00;101897.63;6181447;23;20507;-91
2022/10/17 09:22:40;;;;;;;18.25;9.43;;;;;;;15.76;100.00;101906.31;6180005;23;20005;-90
2022/10/17 09:25:14;;;;;;;14.90;8.93;;;;;;;15.72;100.00;101936.06;6179506;23;20012;-90
2022/10/17 09:27:47;;;;;;;15.85;8.48;;;;;;;15.76;100.00;101919.38;6180464;23;20013;-91
2022/10/17 09:30:27;;;;;;;13.82;9.05;;;;;;;15.76;100.00;101950.75;6179809;23;20312;-91
2022/10/17 09:32:53;;;;;;;15.65;9.30;;;;;;;15.75;100.00;101942.97;6181176;23;19997;-91
2022/10/17 09:35:20;;;;;;;15.82;9.05;;;;;;;15.71;100.00;101934.34;6179336;23;20028;-90
2022/10/17 09:37:46;;;;;;;19.85;9.43;;;;;;;15.69;100.00;101888.25;6180616;23;20044;-91
2022/10/17 09:40:20;;;;;;;18.55;9.48;;;;;;;15.67;100.00;101858.69;6178506;23;20001;-91
2022/10/17 09:42:49;;;;;;;14.40;9.18;;;;;;;15.62;100.00;101829.22;6181008;23;20135;-91
2022/10/17 09:45:27;;;;;;;15.07;9.85;;;;;;;15.71;100.00;101839.38;6181464;23;19996;-91
2022/10/17 09:48:14;;;;;;;19.60;10.35;;;;;;;15.75;100.00;101859.31;6180039;23;20100;-91
2022/10/17 09:50:40;;;;;;;19.08;10.25;;;;;;;15.85;100.00;101870.34;6181758;23;20031;-90
2022/10/17 09:53:14;;;;;;;17.35;10.85;;;;;;;15.90;100.00;101885.00;6181012;23;20032;-91
2022/10/17 09:55:49;;;;;;;19.30;10.65;;;;;;;15.95;100.00;101903.19;6180214;23;20220;-91
2022/10/17 09:58:14;;;;;;;18.42;10.23;;;;;;;15.94;100.00;101928.47;6179717;23;20000;-90
2022/10/17 10:00:46;;;;;;;21.42;11.30;;;;;;;15.92;100.00;101914.59;6178271;23;20013;-90
2022/10/17 10:03:14;;;;;;;17.55;10.05;;;;;;;15.90;100.00;101900.69;6178495;23;20382;-89
2022/10/17 10:05:41;;;;;;;17.38;10.75;;;;;;;15.90;100.00;101903.31;6182095;23;19993;-91
2022/10/17 10:08:17;;;;;;;20.58;10.57;;;;;;;15.92;100.00;101891.06;6177105;23;20009;-90
2022/10/17 10:10:43;;;;;;;19.65;11.15;;;;;;;15.97;100.00;101880.44;6179639;23;20334;-90
2022/10/17 10:13:12;;;;;;;19.23;11.77;;;;;;;16.03;100.00;101883.78;6180004;23;20008;-90
2022/10/17 10:15:41;;;;;;;18.77;11.93;;;;;;;16.07;100.00;101882.75;6181084;23;20418;-91
2022/10/17 10:18:29;;;;;;;18.08;11.38;;;;;;;16.13;100.00;101887.81;6181637;23;20005;-90
2022/10/17 10:21:05;;;;;;;20.58;11.90;;;;;;;16.18;100.00;101895.50;6160700;23;20335;-90
2022/10/17 10:23:31;;;;;;;19.45;12.55;;;;;;;16.15;100.00;101908.69;6178987;23;20331;-91
2022/10/17 10:26:21;;;;;;;22.45;12.15;;;;;;;16.16;100.00;101915.66;6177861;23;20466;-91
2022/10/17 10:28:53;;;;;;;16.15;11.02;;;;;;;16.11;100.00;101915.75;6181249;23;20001;-91
2022/10/17 10:31:26;;;;;;;17.60;11.55;;;;;;;16.12;100.00;101921.84;6181058;23;20411;-91
2022/10/17 10:33:51;;;;;;;18.67;11.88;;;;;;;16.13;100.00;101934.88;6180740;23;20005;-91
2022/10/17 10:36:20;;;;;;;22.08;12.95;;;;;;;16.20;100.00;101936.44;6181330;23;20005;-91
2022/10/17 10:38:52;;;;;;;18.67;11.70;;;;;;;16.27;100.00;101946.72;6177910;23;20427;-90
2022/10/17 10:41:18;;;;;;;21.17;11.65;;;;;;;16.29;100.00;101953.63;6176756;23;20340;-90
2022/10/17 10:43:50;;;;;;;19.13;11.90;;;;;;;16.23;100.00;101938.09;6180530;23;20454;-90
2022/10/17 10:46:22;;;;;;;20.23;11.75;;;;;;;16.32;100.00;101950.91;6178342;23;20074;-90
2022/10/17 10:48:59;;;;;;;22.75;12.20;;;;;;;16.34;100.00;101962.19;6180356;23;20088;-89
2022/10/17 10:51:49;;;;;;;19.52;11.40;;;;;;;16.34;100.00;101969.19;6179871;23;20090;-90
2022/10/17 10:54:25;;;;;;;19.17;10.90;;;;;;;16.36;100.00;101986.56;6180595;23;20016;-89
2022/10/17 10:56:59;;;;;;;18.45;11.50;;;;;;;16.36;100.00;101989.19;6179528;23;20087;-89
2022/10/17 10:59:30;;;;;;;22.83;11.07;;;;;;;16.32;100.00;101990.16;6176952;23;20048;-89
2022/10/17 11:02:16;;;;;;;17.85;10.02;;;;;;;16.27;100.00;101985.97;6179406;23;20005;-90
2022/10/17 11:04:57;;;;;;;15.38;9.82;;;;;;;16.22;100.00;101988.72;6178560;23;20312;-89
2022/10/17 11:07:27;;;;;;;16.42;10.15;;;;;;;16.23;100.00;101997.44;6178268;23;20027;-90
2022/10/17 11:10:29;;;;;;;16.58;10.48;;;;;;;16.20;100.00;101995.75;6179352;23;20005;-90
2022/10/17 11:13:12;;;;;;;17.80;10.35;;;;;;;16.18;100.00;102008.00;6180923;23;20027;-89
2022/10/17 11:15:40;;;;;;;16.58;9.20;;;;;;;16.15;100.00;102010.72;6180916;23;20009;-90
2022/10/17 11:18:21;;;;;;;17.45;9.30;;;;;;;16.11;100.00;102007.31;6181146;23;20484;-90
2022/10/17 11:21:19;;;;;;;12.10;8.75;;;;;;;16.15;100.00;102010.72;6180442;23;20024;-90
2022/10/17 11:23:48;;;;;;;15.00;9.05;;;;;;;16.13;100.00;102018.59;6178041;23;20012;-89